createdAt,value
2022-11-03T00:03:17.257Z,6.80
2022-11-03T00:13:19.468Z,5.17
2022-11-03T00:23:21.568Z,4.63
2022-11-03T00:33:27.013Z,6.43
2022-11-03T00:43:35.045Z,4.93
2022-11-03T00:53:43.656Z,4.40
2022-11-03T01:04:09.479Z,4.20
2022-11-03T01:14:19.128Z,4.40
2022-11-03T01:24:26.052Z,3.70
2022-11-03T01:34:31.904Z,3.37
2022-11-03T01:44:36.213Z,3.60
2022-11-03T01:54:43.962Z,5.00
2022-11-03T02:04:46.142Z,4.00
2022-11-03T02:14:59.309Z,3.80
2022-11-03T02:25:23.294Z,4.03
2022-11-03T02:35:33.715Z,4.90
2022-11-03T02:45:37.935Z,4.53
2022-11-03T02:55:41.695Z,5.57
2022-11-03T03:05:45.698Z,5.50
2022-11-03T03:15:53.869Z,6.63
2022-11-03T03:26:05.928Z,6.23
2022-11-03T03:36:12.399Z,6.33
2022-11-03T03:46:17.570Z,6.53
2022-11-03T03:56:23.681Z,5.97
2022-11-03T04:06:29.016Z,8.20
2022-11-03T04:16:54.819Z,6.20
2022-11-03T04:27:12.743Z,5.90
2022-11-03T04:37:19.141Z,7.40
2022-11-03T04:47:21.350Z,7.70
2022-11-03T04:57:23.630Z,7.03
2022-11-03T05:07:34.890Z,7.37
2022-11-03T05:17:37.721Z,6.20
2022-11-03T05:27:45.205Z,6.03
2022-11-03T05:37:49.447Z,7.10
2022-11-03T05:47:55.115Z,6.77
2022-11-03T05:58:00.466Z,7.03
2022-11-03T06:08:18.637Z,7.30
2022-11-03T06:18:25.029Z,6.53
2022-11-03T06:28:32.663Z,6.93
2022-11-03T06:38:35.965Z,6.00
2022-11-03T06:48:39.358Z,5.77
2022-11-03T06:58:42.855Z,5.67
2022-11-03T07:08:54.852Z,5.47
2022-11-03T07:19:11.720Z,5.35
2022-11-03T07:29:23.669Z,5.45
2022-11-03T07:39:35.573Z,10.00
2022-11-03T07:49:40.494Z,5.40
2022-11-03T07:59:44.820Z,5.80
2022-11-03T08:09:46.851Z,5.60
2022-11-03T08:19:51.199Z,5.47
2022-11-03T08:29:56.980Z,6.60
2022-11-03T08:40:01.282Z,6.13
2022-11-03T08:50:13.923Z,4.57
2022-11-03T09:00:23.163Z,6.45
2022-11-03T09:10:29.986Z,6.22
2022-11-03T09:20:39.001Z,5.32
2022-11-03T09:30:44.958Z,6.20
2022-11-03T09:40:51.792Z,5.07
2022-11-03T09:50:58.112Z,4.63
2022-11-03T10:01:04.001Z,3.90
2022-11-03T10:11:09.879Z,3.78
2022-11-03T10:21:38.190Z,2.88
2022-11-03T10:31:42.107Z,3.08
2022-11-03T10:41:58.664Z,3.65
2022-11-03T10:52:19.715Z,3.55
2022-11-03T11:02:25.326Z,2.55
2022-11-03T11:12:31.822Z,2.70
2022-11-03T11:22:34.106Z,2.75
2022-11-03T11:32:44.831Z,2.15
2022-11-03T11:43:05.866Z,2.38
2022-11-03T11:53:11.534Z,2.13
2022-11-03T12:03:17.932Z,2.58
2022-11-03T12:13:53.978Z,2.05
2022-11-03T12:23:55.996Z,2.60
2022-11-03T12:34:01.159Z,1.95
2022-11-03T12:44:05.975Z,1.90
2022-11-03T12:54:08.483Z,2.08
2022-11-03T13:04:10.779Z,2.22
2022-11-03T13:14:15.109Z,2.10
2022-11-03T13:24:19.455Z,1.67
2022-11-03T13:34:24.205Z,1.73
2022-11-03T13:44:27.342Z,3.13
2022-11-03T14:04:52.059Z,2.25
2022-11-03T14:14:56.194Z,1.58
2022-11-03T14:25:02.205Z,1.90
2022-11-03T14:35:08.260Z,1.48
2022-11-03T14:45:17.706Z,2.00
2022-11-03T14:55:24.644Z,1.80
2022-11-03T15:05:48.494Z,2.30
2022-11-03T15:15:53.240Z,4.30
2022-11-03T15:25:57.808Z,2.22
2022-11-03T15:36:04.641Z,2.50
2022-11-03T15:46:10.398Z,1.73
2022-11-03T15:56:14.707Z,2.50
2022-11-03T16:06:19.039Z,2.53
2022-11-03T16:16:21.057Z,2.30
2022-11-03T16:26:24.418Z,2.60
2022-11-03T16:36:26.479Z,2.55
2022-11-03T16:46:30.014Z,2.90
2022-11-03T16:56:39.983Z,3.50
2022-11-03T17:06:42.025Z,2.73
2022-11-03T17:16:46.866Z,4.67
2022-11-03T17:26:58.194Z,4.77
2022-11-03T17:37:00.682Z,5.17
2022-11-03T17:47:02.646Z,6.27
2022-11-03T17:57:07.393Z,7.57
2022-11-03T18:07:30.269Z,7.13
2022-11-03T18:17:37.368Z,7.83
2022-11-03T18:27:39.725Z,7.20
2022-11-03T18:37:44.354Z,9.40
2022-11-03T18:47:52.231Z,8.00
2022-11-03T18:57:56.749Z,10.67
2022-11-03T19:08:02.773Z,11.00
2022-11-03T19:18:08.720Z,11.00
2022-11-03T19:28:18.751Z,10.10
2022-11-03T19:38:26.970Z,9.47
2022-11-03T19:48:35.768Z,11.03
2022-11-03T19:58:37.759Z,11.70
2022-11-03T20:08:47.649Z,11.67
2022-11-03T20:18:57.559Z,13.63
2022-11-03T20:29:11.834Z,13.73
2022-11-03T20:39:14.725Z,19.80
2022-11-03T20:49:18.997Z,14.77
2022-11-03T20:59:24.917Z,13.47
2022-11-03T21:09:33.783Z,11.17
2022-11-03T21:19:57.821Z,18.70
2022-11-03T21:30:00.365Z,12.87
2022-11-03T21:40:05.106Z,12.03
2022-11-03T21:50:09.873Z,12.80
2022-11-03T22:00:14.689Z,10.47
2022-11-03T22:10:16.744Z,11.30
2022-11-03T22:20:39.861Z,10.77
2022-11-03T22:31:05.726Z,17.40
2022-11-03T22:41:28.905Z,11.23
2022-11-03T22:51:31.048Z,10.57
2022-11-03T23:01:37.525Z,10.10
2022-11-03T23:11:43.693Z,9.23
2022-11-03T23:21:49.567Z,13.47
2022-11-03T23:31:53.960Z,11.07
2022-11-03T23:41:55.994Z,10.47
2022-11-03T23:51:58.806Z,10.13
